Flight Briefing for CPX408

Departure Arrival
Tulsa International Airport (KTUL)
Click to view FAA NOTAMS
Chicago/Rockford International Airport (KRFD)
Click to view FAA NOTAMS
Departure Time Arrival Time
N/A N/A
Aircraft Distance
B757-200SF 479nm
Departure METAR Arrival METAR
KTUL 200853Z 31007KT 10SM OVC065 08/07 A3023 RMK AO2 RAE48 SLP232 P0003 60003 T00830067 50011 KRFD 200854Z 20008KT 10SM OVC065 04/M01 A3014 RMK AO2 SLP210 T00441006 58020
Suggested Route
TUL5 EOS J181 BAYLI J105 BDF


View recent IFR Routes data
Notes



Charts and Procedures

Charts for KTUL
No chart available
Charts for KRFD
No chart available

Windy.com Weather Map